sensor_id;sensor_type;location;lat;lon;timestamp;P1;durP1;ratioP1;P2;durP2;ratioP2
22017;SDS011;11173;51.050;7.108;2022-12-07T00:04:50;12.55;;;10.60;;
22017;SDS011;11173;51.050;7.108;2022-12-07T00:14:51;15.10;;;11.95;;
22017;SDS011;11173;51.050;7.108;2022-12-07T00:24:51;13.48;;;11.52;;
22017;SDS011;11173;51.050;7.108;2022-12-07T00:34:51;12.80;;;11.18;;
22017;SDS011;11173;51.050;7.108;2022-12-07T00:44:52;13.68;;;10.75;;
22017;SDS011;11173;51.050;7.108;2022-12-07T00:54:52;13.10;;;10.40;;
22017;SDS011;11173;51.050;7.108;2022-12-07T01:04:52;10.50;;;9.48;;
22017;SDS011;11173;51.050;7.108;2022-12-07T01:14:53;9.25;;;8.35;;
22017;SDS011;11173;51.050;7.108;2022-12-07T01:24:53;16.88;;;13.23;;
22017;SDS011;11173;51.050;7.108;2022-12-07T01:34:53;17.25;;;14.05;;
22017;SDS011;11173;51.050;7.108;2022-12-07T01:55:42;13.15;;;10.80;;
22017;SDS011;11173;51.050;7.108;2022-12-07T02:05:46;15.38;;;12.20;;
22017;SDS011;11173;51.050;7.108;2022-12-07T02:36:39;16.20;;;13.70;;
22017;SDS011;11173;51.050;7.108;2022-12-07T02:46:48;20.00;;;15.23;;
22017;SDS011;11173;51.050;7.108;2022-12-07T02:57:41;22.77;;;17.13;;
22017;SDS011;11173;51.050;7.108;2022-12-07T03:17:33;19.08;;;14.18;;
22017;SDS011;11173;51.050;7.108;2022-12-07T03:37:45;15.32;;;13.13;;
22017;SDS011;11173;51.050;7.108;2022-12-07T03:48:08;18.67;;;15.35;;
22017;SDS011;11173;51.050;7.108;2022-12-07T03:58:34;12.95;;;11.65;;
22017;SDS011;11173;51.050;7.108;2022-12-07T04:08:35;17.25;;;14.35;;
22017;SDS011;11173;51.050;7.108;2022-12-07T04:18:36;14.20;;;12.10;;
22017;SDS011;11173;51.050;7.108;2022-12-07T04:28:36;16.80;;;14.65;;
22017;SDS011;11173;51.050;7.108;2022-12-07T04:38:36;15.45;;;13.10;;
22017;SDS011;11173;51.050;7.108;2022-12-07T04:48:37;14.88;;;13.30;;
22017;SDS011;11173;51.050;7.108;2022-12-07T04:58:37;12.70;;;11.40;;
22017;SDS011;11173;51.050;7.108;2022-12-07T05:08:37;9.95;;;8.55;;
22017;SDS011;11173;51.050;7.108;2022-12-07T05:18:38;9.38;;;8.48;;
22017;SDS011;11173;51.050;7.108;2022-12-07T05:28:38;11.50;;;9.63;;
22017;SDS011;11173;51.050;7.108;2022-12-07T05:38:39;7.93;;;7.13;;
22017;SDS011;11173;51.050;7.108;2022-12-07T05:48:40;6.53;;;5.93;;
22017;SDS011;11173;51.050;7.108;2022-12-07T05:58:40;8.23;;;7.05;;
22017;SDS011;11173;51.050;7.108;2022-12-07T06:08:59;10.97;;;9.00;;
22017;SDS011;11173;51.050;7.108;2022-12-07T06:19:00;9.20;;;8.30;;
22017;SDS011;11173;51.050;7.108;2022-12-07T06:29:00;12.70;;;9.50;;
22017;SDS011;11173;51.050;7.108;2022-12-07T06:39:00;9.68;;;8.68;;
22017;SDS011;11173;51.050;7.108;2022-12-07T06:49:01;9.95;;;8.55;;
22017;SDS011;11173;51.050;7.108;2022-12-07T06:59:03;7.60;;;7.00;;
22017;SDS011;11173;51.050;7.108;2022-12-07T07:09:06;6.78;;;5.45;;
22017;SDS011;11173;51.050;7.108;2022-12-07T07:19:06;7.55;;;6.85;;
22017;SDS011;11173;51.050;7.108;2022-12-07T07:29:07;7.10;;;5.80;;
22017;SDS011;11173;51.050;7.108;2022-12-07T07:39:07;7.22;;;6.53;;
22017;SDS011;11173;51.050;7.108;2022-12-07T07:49:08;7.47;;;6.68;;
22017;SDS011;11173;51.050;7.108;2022-12-07T07:59:10;7.93;;;7.13;;
22017;SDS011;11173;51.050;7.108;2022-12-07T08:09:10;8.98;;;7.32;;
22017;SDS011;11173;51.050;7.108;2022-12-07T08:19:11;9.15;;;7.45;;
22017;SDS011;11173;51.050;7.108;2022-12-07T08:29:11;8.23;;;6.85;;
22017;SDS011;11173;51.050;7.108;2022-12-07T08:39:11;10.30;;;7.88;;
22017;SDS011;11173;51.050;7.108;2022-12-07T08:49:13;13.10;;;8.27;;
22017;SDS011;11173;51.050;7.108;2022-12-07T08:59:36;8.57;;;7.63;;
22017;SDS011;11173;51.050;7.108;2022-12-07T09:09:37;7.65;;;6.68;;
22017;SDS011;11173;51.050;7.108;2022-12-07T09:19:37;7.28;;;6.32;;
22017;SDS011;11173;51.050;7.108;2022-12-07T09:29:38;7.43;;;6.57;;
22017;SDS011;11173;51.050;7.108;2022-12-07T09:39:39;8.30;;;6.53;;
22017;SDS011;11173;51.050;7.108;2022-12-07T09:49:40;9.73;;;7.90;;
22017;SDS011;11173;51.050;7.108;2022-12-07T09:59:40;10.63;;;7.70;;
22017;SDS011;11173;51.050;7.108;2022-12-07T10:09:41;9.43;;;8.02;;
22017;SDS011;11173;51.050;7.108;2022-12-07T10:19:43;7.38;;;6.60;;
22017;SDS011;11173;51.050;7.108;2022-12-07T10:29:46;7.03;;;6.30;;
22017;SDS011;11173;51.050;7.108;2022-12-07T10:39:53;8.82;;;7.65;;
22017;SDS011;11173;51.050;7.108;2022-12-07T10:50:02;7.88;;;6.55;;
22017;SDS011;11173;51.050;7.108;2022-12-07T11:00:16;7.25;;;6.07;;
22017;SDS011;11173;51.050;7.108;2022-12-07T11:10:26;5.82;;;4.60;;
22017;SDS011;11173;51.050;7.108;2022-12-07T11:20:42;6.93;;;5.38;;
22017;SDS011;11173;51.050;7.108;2022-12-07T11:41:47;11.43;;;5.65;;
22017;SDS011;11173;51.050;7.108;2022-12-07T11:51:51;9.02;;;5.50;;
22017;SDS011;11173;51.050;7.108;2022-12-07T12:02:03;10.40;;;5.47;;
22017;SDS011;11173;51.050;7.108;2022-12-07T12:22:44;6.27;;;5.67;;
22017;SDS011;11173;51.050;7.108;2022-12-07T12:32:47;8.48;;;6.07;;
22017;SDS011;11173;51.050;7.108;2022-12-07T12:42:52;7.03;;;5.32;;
22017;SDS011;11173;51.050;7.108;2022-12-07T12:52:58;6.78;;;4.75;;
22017;SDS011;11173;51.050;7.108;2022-12-07T13:03:02;8.63;;;4.30;;
22017;SDS011;11173;51.050;7.108;2022-12-07T13:23:19;9.80;;;6.05;;
22017;SDS011;11173;51.050;7.108;2022-12-07T13:33:22;5.22;;;3.80;;
22017;SDS011;11173;51.050;7.108;2022-12-07T13:43:23;18.02;;;8.68;;
22017;SDS011;11173;51.050;7.108;2022-12-07T13:53:23;11.52;;;7.20;;
22017;SDS011;11173;51.050;7.108;2022-12-07T14:03:29;3.50;;;3.20;;
22017;SDS011;11173;51.050;7.108;2022-12-07T14:13:32;4.80;;;3.85;;
22017;SDS011;11173;51.050;7.108;2022-12-07T14:23:36;5.55;;;4.30;;
22017;SDS011;11173;51.050;7.108;2022-12-07T14:33:38;5.43;;;4.10;;
22017;SDS011;11173;51.050;7.108;2022-12-07T14:43:40;4.28;;;3.80;;
22017;SDS011;11173;51.050;7.108;2022-12-07T14:53:41;5.35;;;4.25;;
22017;SDS011;11173;51.050;7.108;2022-12-07T15:03:46;21.92;;;9.07;;
22017;SDS011;11173;51.050;7.108;2022-12-07T15:13:46;26.30;;;9.32;;
22017;SDS011;11173;51.050;7.108;2022-12-07T15:24:05;31.27;;;11.70;;
22017;SDS011;11173;51.050;7.108;2022-12-07T15:34:06;10.43;;;5.95;;
22017;SDS011;11173;51.050;7.108;2022-12-07T15:44:08;4.53;;;4.10;;
22017;SDS011;11173;51.050;7.108;2022-12-07T15:54:30;5.18;;;4.10;;
22017;SDS011;11173;51.050;7.108;2022-12-07T16:04:32;11.63;;;7.25;;
22017;SDS011;11173;51.050;7.108;2022-12-07T16:14:32;8.02;;;5.38;;
22017;SDS011;11173;51.050;7.108;2022-12-07T16:24:33;3.70;;;3.35;;
22017;SDS011;11173;51.050;7.108;2022-12-07T16:34:33;3.65;;;2.70;;
22017;SDS011;11173;51.050;7.108;2022-12-07T16:44:34;4.80;;;3.00;;
22017;SDS011;11173;51.050;7.108;2022-12-07T16:54:35;3.88;;;3.47;;
22017;SDS011;11173;51.050;7.108;2022-12-07T17:04:36;4.93;;;4.43;;
22017;SDS011;11173;51.050;7.108;2022-12-07T17:14:39;3.75;;;3.45;;
22017;SDS011;11173;51.050;7.108;2022-12-07T17:24:58;5.57;;;3.90;;
22017;SDS011;11173;51.050;7.108;2022-12-07T17:34:58;4.88;;;4.43;;
22017;SDS011;11173;51.050;7.108;2022-12-07T17:44:59;5.70;;;5.05;;
22017;SDS011;11173;51.050;7.108;2022-12-07T17:55:00;12.85;;;8.30;;
22017;SDS011;11173;51.050;7.108;2022-12-07T18:05:00;23.25;;;11.98;;
22017;SDS011;11173;51.050;7.108;2022-12-07T18:15:01;25.75;;;13.55;;
22017;SDS011;11173;51.050;7.108;2022-12-07T18:25:01;33.58;;;17.85;;
22017;SDS011;11173;51.050;7.108;2022-12-07T18:35:01;9.45;;;8.00;;
22017;SDS011;11173;51.050;7.108;2022-12-07T18:45:02;8.80;;;7.00;;
22017;SDS011;11173;51.050;7.108;2022-12-07T18:55:03;7.10;;;6.40;;
22017;SDS011;11173;51.050;7.108;2022-12-07T19:05:03;8.10;;;6.55;;
22017;SDS011;11173;51.050;7.108;2022-12-07T19:15:04;5.75;;;5.25;;
22017;SDS011;11173;51.050;7.108;2022-12-07T19:25:06;11.38;;;9.85;;
22017;SDS011;11173;51.050;7.108;2022-12-07T19:35:07;10.70;;;7.85;;
22017;SDS011;11173;51.050;7.108;2022-12-07T19:45:08;13.77;;;10.30;;
22017;SDS011;11173;51.050;7.108;2022-12-07T19:55:08;9.90;;;8.73;;
22017;SDS011;11173;51.050;7.108;2022-12-07T20:05:09;8.80;;;7.80;;
22017;SDS011;11173;51.050;7.108;2022-12-07T20:15:10;9.30;;;8.10;;
22017;SDS011;11173;51.050;7.108;2022-12-07T20:25:10;11.85;;;8.95;;
22017;SDS011;11173;51.050;7.108;2022-12-07T20:35:10;9.02;;;8.10;;
22017;SDS011;11173;51.050;7.108;2022-12-07T20:45:11;7.30;;;6.07;;
22017;SDS011;11173;51.050;7.108;2022-12-07T20:55:11;6.50;;;5.80;;
22017;SDS011;11173;51.050;7.108;2022-12-07T21:05:12;5.32;;;4.82;;
22017;SDS011;11173;51.050;7.108;2022-12-07T21:15:13;8.10;;;7.00;;
22017;SDS011;11173;51.050;7.108;2022-12-07T21:25:13;13.98;;;10.18;;
22017;SDS011;11173;51.050;7.108;2022-12-07T21:35:13;13.38;;;9.60;;
22017;SDS011;11173;51.050;7.108;2022-12-07T21:45:14;15.80;;;11.52;;
22017;SDS011;11173;51.050;7.108;2022-12-07T21:55:14;14.15;;;10.95;;
22017;SDS011;11173;51.050;7.108;2022-12-07T22:05:15;13.07;;;9.85;;
22017;SDS011;11173;51.050;7.108;2022-12-07T22:15:15;9.00;;;7.93;;
22017;SDS011;11173;51.050;7.108;2022-12-07T22:25:16;9.93;;;8.45;;
22017;SDS011;11173;51.050;7.108;2022-12-07T22:35:16;9.80;;;8.70;;
22017;SDS011;11173;51.050;7.108;2022-12-07T22:45:17;13.27;;;9.85;;
22017;SDS011;11173;51.050;7.108;2022-12-07T22:55:17;11.20;;;8.80;;
22017;SDS011;11173;51.050;7.108;2022-12-07T23:05:17;11.45;;;8.80;;
22017;SDS011;11173;51.050;7.108;2022-12-07T23:15:18;8.93;;;8.02;;
22017;SDS011;11173;51.050;7.108;2022-12-07T23:25:18;12.43;;;8.20;;
22017;SDS011;11173;51.050;7.108;2022-12-07T23:35:19;7.50;;;6.60;;
22017;SDS011;11173;51.050;7.108;2022-12-07T23:45:19;10.85;;;9.40;;
22017;SDS011;11173;51.050;7.108;2022-12-07T23:55:19;12.52;;;9.45;;
